createdAt,value
2022-12-01T00:01:20.002Z,99667.72
2022-12-01T00:03:48.158Z,99675.22
2022-12-01T00:06:18.918Z,99672.25
2022-12-01T00:09:03.257Z,99680.00
2022-12-01T00:11:31.746Z,99681.94
2022-12-01T00:14:00.026Z,99686.19
2022-12-01T00:16:30.245Z,99694.19
2022-12-01T00:18:58.418Z,99687.75
2022-12-01T00:21:28.153Z,99683.94
2022-12-01T00:23:58.246Z,99682.28
2022-12-01T00:26:27.732Z,99683.25
2022-12-01T00:28:57.950Z,99678.66
2022-12-01T00:31:26.948Z,99684.22
2022-12-01T00:33:56.724Z,99687.63
2022-12-01T00:36:25.075Z,99695.88
2022-12-01T00:38:54.381Z,99684.66
2022-12-01T00:41:23.128Z,99696.69
2022-12-01T00:43:51.248Z,99695.88
2022-12-01T00:46:20.101Z,99697.97
2022-12-01T00:48:48.357Z,99686.66
2022-12-01T00:51:17.784Z,99695.78
2022-12-01T00:53:46.053Z,99704.66
2022-12-01T00:56:14.962Z,99696.84
2022-12-01T00:58:42.957Z,99698.38
2022-12-01T01:01:11.316Z,99692.47
2022-12-01T01:03:39.421Z,99696.19
2022-12-01T01:06:09.181Z,99691.09
2022-12-01T01:08:38.715Z,99681.75
2022-12-01T01:11:07.614Z,99683.25
2022-12-01T01:13:36.059Z,99682.94
2022-12-01T01:16:06.651Z,99689.56
2022-12-01T01:18:35.561Z,99690.59
2022-12-01T01:21:05.544Z,99688.50
2022-12-01T01:23:33.820Z,99677.63
2022-12-01T01:26:10.609Z,99682.69
2022-12-01T01:28:38.737Z,99685.13
2022-12-01T01:31:07.684Z,99672.88
2022-12-01T01:33:35.890Z,99673.09
2022-12-01T01:36:04.960Z,99673.09
2022-12-01T01:38:33.948Z,99665.91
2022-12-01T01:41:03.005Z,99659.22
2022-12-01T01:43:44.436Z,99657.84
2022-12-01T01:46:14.262Z,99664.53
2022-12-01T01:48:44.867Z,99653.41
2022-12-01T01:51:14.450Z,99658.25
2022-12-01T01:53:43.830Z,99655.13
2022-12-01T01:56:12.083Z,99662.63
2022-12-01T01:58:42.666Z,99661.56
2022-12-01T02:01:10.790Z,99656.25
2022-12-01T02:03:41.296Z,99665.84
2022-12-01T02:06:10.688Z,99661.88
2022-12-01T02:08:39.063Z,99668.00
2022-12-01T02:11:48.444Z,99665.34
2022-12-01T02:14:34.869Z,99667.56
2022-12-01T02:17:13.838Z,99658.50
2022-12-01T02:20:06.395Z,99659.09
2022-12-01T02:22:52.207Z,99646.00
2022-12-01T02:25:29.849Z,99659.09
2022-12-01T02:28:36.409Z,99660.91
2022-12-01T02:31:15.553Z,99663.91
2022-12-01T02:33:50.842Z,99665.03
2022-12-01T02:36:23.375Z,99661.09
2022-12-01T02:38:55.646Z,99651.50
2022-12-01T02:41:29.653Z,99655.53
2022-12-01T02:44:04.676Z,99652.28
2022-12-01T02:46:35.553Z,99658.25
2022-12-01T02:49:10.780Z,99652.50
2022-12-01T02:51:44.726Z,99648.56
2022-12-01T02:54:14.709Z,99655.81
2022-12-01T02:56:45.684Z,99650.00
2022-12-01T02:59:15.500Z,99650.81
2022-12-01T03:02:02.087Z,99644.91
2022-12-01T03:04:50.480Z,99642.00
2022-12-01T03:07:37.085Z,99650.56
2022-12-01T03:10:13.492Z,99649.34
2022-12-01T03:12:50.622Z,99643.50
2022-12-01T03:15:32.116Z,99639.00
2022-12-01T03:18:09.059Z,99634.22
2022-12-01T03:20:43.204Z,99636.56
2022-12-01T03:23:14.435Z,99647.53
2022-12-01T03:25:45.116Z,99647.88
2022-12-01T03:28:23.809Z,99650.06
2022-12-01T03:30:56.717Z,99641.00
2022-12-01T03:33:30.326Z,99640.75
2022-12-01T03:36:04.442Z,99638.09
2022-12-01T03:38:36.159Z,99643.97
2022-12-01T03:41:09.057Z,99643.97
2022-12-01T03:43:44.043Z,99653.59
2022-12-01T03:46:13.903Z,99645.34
2022-12-01T03:48:43.744Z,99642.44
2022-12-01T03:51:17.260Z,99644.47
2022-12-01T03:53:54.228Z,99651.88
2022-12-01T03:56:27.383Z,99646.81
2022-12-01T03:58:58.728Z,99649.47
2022-12-01T04:01:28.351Z,99659.06
2022-12-01T04:03:57.846Z,99658.53
2022-12-01T04:06:25.957Z,99657.47
2022-12-01T04:08:53.997Z,99664.91
2022-12-01T04:11:39.664Z,99665.66
2022-12-01T04:14:07.675Z,99652.25
2022-12-01T04:16:36.002Z,99652.97
2022-12-01T04:19:05.627Z,99649.22
2022-12-01T04:21:33.634Z,99654.19
2022-12-01T04:24:01.819Z,99649.63
2022-12-01T04:26:31.217Z,99648.41
2022-12-01T04:29:00.085Z,99648.81
2022-12-01T04:31:28.184Z,99656.41
2022-12-01T04:33:56.605Z,99664.00
2022-12-01T04:36:27.130Z,99653.16
2022-12-01T04:38:55.159Z,99658.41
2022-12-01T04:41:23.221Z,99660.66
2022-12-01T04:43:53.450Z,99658.38
2022-12-01T04:46:21.690Z,99663.06
2022-12-01T04:48:49.682Z,99661.59
2022-12-01T04:51:17.813Z,99668.09
2022-12-01T04:53:47.416Z,99664.78
2022-12-01T04:56:15.474Z,99671.03
2022-12-01T04:58:43.525Z,99664.47
2022-12-01T05:01:14.727Z,99671.31
2022-12-01T05:03:44.864Z,99670.16
2022-12-01T05:06:15.002Z,99669.03
2022-12-01T05:08:43.235Z,99663.38
2022-12-01T05:11:13.566Z,99667.22
2022-12-01T05:13:43.339Z,99666.03
2022-12-01T05:16:13.607Z,99670.00
2022-12-01T05:18:42.376Z,99662.50
2022-12-01T05:21:11.191Z,99666.66
2022-12-01T05:23:39.958Z,99667.94
2022-12-01T05:26:09.867Z,99668.97
2022-12-01T05:28:41.068Z,99663.88
2022-12-01T05:31:09.281Z,99664.13
2022-12-01T05:33:37.403Z,99662.75
2022-12-01T05:36:05.993Z,99657.66
2022-12-01T05:38:34.093Z,99660.31
2022-12-01T05:41:02.210Z,99661.13
2022-12-01T05:43:30.275Z,99666.69
2022-12-01T05:46:00.368Z,99658.94
2022-12-01T05:48:28.615Z,99667.72
2022-12-01T05:50:56.667Z,99656.28
2022-12-01T05:53:24.864Z,99654.66
2022-12-01T05:55:54.438Z,99661.84
2022-12-01T05:58:23.572Z,99663.69
2022-12-01T06:00:51.710Z,99660.78
2022-12-01T06:03:21.170Z,99666.09
2022-12-01T06:05:49.340Z,99656.84
2022-12-01T06:08:17.595Z,99657.91
2022-12-01T06:10:46.417Z,99658.72
2022-12-01T06:13:14.475Z,99661.59
2022-12-01T06:15:42.608Z,99654.06
2022-12-01T06:18:10.685Z,99651.78
2022-12-01T06:20:40.098Z,99652.22
2022-12-01T06:23:08.215Z,99656.72
2022-12-01T06:25:36.184Z,99666.72
2022-12-01T06:28:04.347Z,99672.75
2022-12-01T06:30:32.375Z,99669.13
2022-12-01T06:33:00.436Z,99673.50
2022-12-01T06:35:28.458Z,99681.91
2022-12-01T06:37:57.970Z,99681.53
2022-12-01T06:40:26.014Z,99679.88
2022-12-01T06:42:54.152Z,99674.41
2022-12-01T06:45:22.164Z,99668.94
2022-12-01T06:47:54.578Z,99680.81
2022-12-01T06:50:23.242Z,99677.31
2022-12-01T06:52:52.889Z,99677.53
2022-12-01T06:55:22.362Z,99674.31
2022-12-01T06:57:50.981Z,99675.94
2022-12-01T07:00:20.184Z,99669.94
2022-12-01T07:02:48.304Z,99676.97
2022-12-01T07:05:16.489Z,99671.22
2022-12-01T07:07:44.921Z,99666.19
2022-12-01T07:10:15.008Z,99657.72
2022-12-01T07:12:44.465Z,99660.72
2022-12-01T07:15:13.564Z,99658.91
2022-12-01T07:17:41.674Z,99665.44
2022-12-01T07:20:11.398Z,99661.47
2022-12-01T07:22:40.064Z,99662.34
2022-12-01T07:25:08.945Z,99662.94
2022-12-01T07:27:37.270Z,99660.13
2022-12-01T07:30:08.263Z,99665.81
2022-12-01T07:32:36.985Z,99662.16
2022-12-01T07:35:05.271Z,99652.59
2022-12-01T07:37:33.290Z,99655.31
2022-12-01T07:40:01.281Z,99658.03
2022-12-01T07:42:29.265Z,99652.25
2022-12-01T07:44:57.334Z,99649.91
2022-12-01T07:47:26.693Z,99646.72
2022-12-01T07:49:54.878Z,99643.88
2022-12-01T07:52:22.891Z,99641.84
2022-12-01T07:54:50.906Z,99649.44
2022-12-01T07:57:20.521Z,99652.19
2022-12-01T07:59:48.756Z,99647.50
2022-12-01T08:02:17.285Z,99644.13
2022-12-01T08:04:46.853Z,99643.94
2022-12-01T08:07:14.865Z,99643.50
2022-12-01T08:09:44.977Z,99641.44
2022-12-01T08:12:12.932Z,99648.19
2022-12-01T08:14:40.948Z,99637.53
2022-12-01T08:17:08.965Z,99642.16
2022-12-01T08:19:37.068Z,99643.22
2022-12-01T08:22:06.584Z,99647.00
2022-12-01T08:24:34.585Z,99641.13
2022-12-01T08:27:02.588Z,99640.88
2022-12-01T08:29:30.587Z,99630.19
2022-12-01T08:31:59.230Z,99636.34
2022-12-01T08:34:27.287Z,99635.31
2022-12-01T08:36:55.332Z,99631.34
2022-12-01T08:39:24.920Z,99637.50
2022-12-01T08:41:52.921Z,99631.09
2022-12-01T08:44:20.965Z,99630.84
2022-12-01T08:46:49.061Z,99634.88
2022-12-01T08:49:17.329Z,99634.34
2022-12-01T08:51:45.412Z,99630.63
2022-12-01T08:54:13.637Z,99622.84
2022-12-01T08:56:44.616Z,99617.47
2022-12-01T08:59:12.651Z,99626.91
2022-12-01T09:01:52.128Z,99622.06
2022-12-01T09:04:21.607Z,99621.25
2022-12-01T09:06:51.301Z,99605.97
2022-12-01T09:09:22.518Z,99621.22
2022-12-01T09:11:53.414Z,99615.84
2022-12-01T09:14:22.796Z,99606.16
2022-12-01T09:16:51.762Z,99603.44
2022-12-01T09:19:24.794Z,99601.50
2022-12-01T09:21:53.715Z,99596.66
2022-12-01T09:24:21.772Z,99598.78
2022-12-01T09:26:51.477Z,99600.59
2022-12-01T09:29:19.486Z,99604.56
2022-12-01T09:31:47.670Z,99596.97
2022-12-01T09:34:17.164Z,99595.31
2022-12-01T09:36:45.345Z,99595.00
2022-12-01T09:39:15.190Z,99591.16
2022-12-01T09:41:47.566Z,99596.66
2022-12-01T09:44:24.481Z,99590.13
2022-12-01T09:46:56.728Z,99580.41
2022-12-01T09:49:29.676Z,99584.59
2022-12-01T09:51:57.680Z,99589.34
2022-12-01T09:54:25.640Z,99585.81
2022-12-01T09:56:55.793Z,99574.03
2022-12-01T09:59:32.244Z,99571.59
2022-12-01T10:02:02.991Z,99563.00
2022-12-01T10:04:38.056Z,99566.44
2022-12-01T10:07:07.968Z,99568.81
2022-12-01T10:09:43.134Z,99565.03
2022-12-01T10:12:18.272Z,99567.50
2022-12-01T10:14:49.507Z,99565.34
2022-12-01T10:17:29.345Z,99559.13
2022-12-01T10:20:04.181Z,99563.16
2022-12-01T10:22:51.633Z,99558.03
2022-12-01T10:25:24.153Z,99552.28
2022-12-01T10:28:13.872Z,99556.31
2022-12-01T10:30:50.649Z,99555.19
2022-12-01T10:33:25.386Z,99541.69
2022-12-01T10:35:53.988Z,99539.22
2022-12-01T10:38:27.255Z,99533.84
2022-12-01T10:40:58.174Z,99543.16
2022-12-01T10:43:32.898Z,99542.53
2022-12-01T10:46:07.107Z,99536.69
2022-12-01T10:48:52.626Z,99539.31
2022-12-01T10:51:22.647Z,99538.94
2022-12-01T10:53:54.251Z,99538.63
2022-12-01T10:56:23.423Z,99541.78
2022-12-01T10:58:53.857Z,99530.97
2022-12-01T11:01:25.645Z,99536.97
2022-12-01T11:03:57.519Z,99539.34
2022-12-01T11:06:29.268Z,99539.50
2022-12-01T11:09:00.372Z,99531.84
2022-12-01T11:11:33.143Z,99536.38
2022-12-01T11:14:03.505Z,99533.25
2022-12-01T11:16:54.516Z,99528.50
2022-12-01T11:19:30.779Z,99522.41
2022-12-01T11:22:00.906Z,99520.84
2022-12-01T11:24:33.586Z,99523.06
2022-12-01T11:27:02.412Z,99516.31
2022-12-01T11:29:36.902Z,99520.94
2022-12-01T11:32:20.664Z,99515.88
2022-12-01T11:34:55.392Z,99502.06
2022-12-01T11:37:26.068Z,99502.19
2022-12-01T11:39:54.495Z,99506.47
2022-12-01T11:42:26.758Z,99495.72
2022-12-01T11:45:01.885Z,99500.78
2022-12-01T11:47:31.484Z,99499.28
2022-12-01T11:50:01.662Z,99496.16
2022-12-01T11:52:31.902Z,99494.66
2022-12-01T11:55:08.413Z,99493.81
2022-12-01T11:57:40.993Z,99498.78
2022-12-01T12:00:15.193Z,99501.19
2022-12-01T12:02:57.042Z,99493.47
2022-12-01T12:05:52.804Z,99492.13
2022-12-01T12:08:36.867Z,99493.47
2022-12-01T12:11:14.083Z,99485.88
2022-12-01T12:13:58.936Z,99487.44
2022-12-01T12:16:39.369Z,99495.44
2022-12-01T12:19:33.601Z,99495.75
2022-12-01T12:22:15.926Z,99495.56
2022-12-01T12:24:56.438Z,99498.25
2022-12-01T12:27:39.515Z,99496.13
2022-12-01T12:30:24.310Z,99496.06
2022-12-01T12:33:23.474Z,99496.34
2022-12-01T12:36:04.294Z,99499.09
2022-12-01T12:38:46.298Z,99502.69
2022-12-01T12:41:29.842Z,99496.28
2022-12-01T12:44:10.848Z,99491.22
2022-12-01T12:46:48.429Z,99493.72
2022-12-01T12:49:31.228Z,99495.66
2022-12-01T12:52:08.782Z,99492.69
2022-12-01T12:54:45.131Z,99498.47
2022-12-01T12:57:22.200Z,99505.03
2022-12-01T12:59:57.899Z,99499.88
2022-12-01T13:02:32.874Z,99504.69
2022-12-01T13:05:06.569Z,99503.50
2022-12-01T13:07:41.608Z,99507.75
2022-12-01T13:10:17.619Z,99509.38
2022-12-01T13:12:54.516Z,99505.03
2022-12-01T13:15:23.061Z,99501.75
2022-12-01T13:17:54.518Z,99506.91
2022-12-01T13:20:27.653Z,99510.69
2022-12-01T13:22:59.059Z,99505.81
2022-12-01T13:25:31.225Z,99505.00
2022-12-01T13:28:03.295Z,99502.25
2022-12-01T13:30:31.484Z,99498.75
2022-12-01T13:33:02.551Z,99503.53
2022-12-01T13:35:34.407Z,99510.38
2022-12-01T13:38:26.063Z,99504.97
2022-12-01T13:41:13.223Z,99500.84
2022-12-01T13:43:54.800Z,99503.69
2022-12-01T13:46:24.579Z,99505.56
2022-12-01T13:48:54.795Z,99495.47
2022-12-01T13:51:22.928Z,99503.13
2022-12-01T13:54:26.807Z,99500.59
2022-12-01T13:57:02.077Z,99500.84
2022-12-01T14:00:06.078Z,99497.25
2022-12-01T14:02:36.129Z,99500.69
2022-12-01T14:05:41.665Z,99496.97
2022-12-01T14:08:22.859Z,99496.25
2022-12-01T14:10:59.127Z,99505.31
2022-12-01T14:13:28.529Z,99502.59
2022-12-01T14:15:59.149Z,99505.25
2022-12-01T14:18:34.256Z,99506.50
2022-12-01T14:21:03.263Z,99499.09
2022-12-01T14:23:34.347Z,99495.47
2022-12-01T14:26:17.288Z,99501.72
2022-12-01T14:29:18.761Z,99497.25
2022-12-01T14:32:26.093Z,99493.91
2022-12-01T14:35:13.803Z,99495.03
2022-12-01T14:37:51.436Z,99495.06
2022-12-01T14:40:25.309Z,99494.16
2022-12-01T14:43:15.243Z,99494.88
2022-12-01T14:45:52.023Z,99499.78
2022-12-01T14:48:27.633Z,99499.88
2022-12-01T14:51:12.111Z,99499.66
2022-12-01T14:53:45.688Z,99501.56
2022-12-01T14:56:17.890Z,99498.38
2022-12-01T14:58:55.940Z,99492.81
2022-12-01T15:01:25.309Z,99498.50
2022-12-01T15:03:56.751Z,99491.56
2022-12-01T15:06:27.091Z,99493.19
2022-12-01T15:09:32.924Z,99493.75
2022-12-01T15:12:01.015Z,99485.22
2022-12-01T15:14:36.180Z,99489.81
2022-12-01T15:17:05.701Z,99493.84
2022-12-01T15:19:37.229Z,99501.34
2022-12-01T15:22:13.775Z,99501.34
2022-12-01T15:24:42.369Z,99499.75
2022-12-01T15:27:26.425Z,99500.84
2022-12-01T15:29:58.310Z,99496.53
2022-12-01T15:32:27.266Z,99498.72
2022-12-01T15:34:56.958Z,99495.50
2022-12-01T15:37:27.909Z,99487.44
2022-12-01T15:40:43.024Z,99485.56
2022-12-01T15:43:02.125Z,99484.47
2022-12-01T15:45:42.421Z,99486.91
2022-12-01T15:48:17.932Z,99496.53
2022-12-01T15:50:50.902Z,99492.50
2022-12-01T15:53:25.130Z,99494.63
2022-12-01T15:55:58.786Z,99490.59
2022-12-01T15:58:30.362Z,99494.91
2022-12-01T16:01:01.922Z,99494.91
2022-12-01T16:03:30.737Z,99490.59
2022-12-01T16:05:59.586Z,99496.53
2022-12-01T16:08:29.598Z,99492.25
2022-12-01T16:11:15.716Z,99501.91
2022-12-01T16:13:48.277Z,99499.22
2022-12-01T16:16:35.952Z,99505.66
2022-12-01T16:19:06.721Z,99501.91
2022-12-01T16:21:43.348Z,99505.38
2022-12-01T16:24:16.226Z,99496.03
2022-12-01T16:26:50.092Z,99500.84
2022-12-01T16:29:21.233Z,99501.09
2022-12-01T16:32:18.728Z,99498.72
2022-12-01T16:34:47.732Z,99496.84
2022-12-01T16:37:16.551Z,99507.56
2022-12-01T16:39:44.681Z,99505.66
2022-12-01T16:42:14.982Z,99515.31
2022-12-01T16:44:44.772Z,99506.75
2022-12-01T16:47:20.333Z,99511.03
2022-12-01T16:49:48.762Z,99512.91
2022-12-01T16:55:06.201Z,99513.22
2022-12-01T16:57:34.203Z,99512.16
2022-12-01T17:00:02.273Z,99516.41
2022-12-01T17:02:31.868Z,99524.47
2022-12-01T17:04:59.988Z,99512.69
2022-12-01T17:07:28.010Z,99519.38
2022-12-01T17:09:56.081Z,99519.09
2022-12-01T17:12:26.394Z,99514.25
2022-12-01T17:14:54.438Z,99512.13
2022-12-01T17:17:22.537Z,99515.31
2022-12-01T17:19:52.880Z,99513.47
2022-12-01T17:22:21.367Z,99523.34
2022-12-01T17:24:49.616Z,99530.34
2022-12-01T17:27:17.983Z,99527.66
2022-12-01T17:29:46.557Z,99529.00
2022-12-01T17:32:15.137Z,99538.88
2022-12-01T17:34:43.115Z,99530.84
2022-12-01T17:37:17.520Z,99529.78
2022-12-01T17:39:48.674Z,99535.94
2022-12-01T17:42:16.769Z,99544.00
2022-12-01T17:44:44.893Z,99536.75
2022-12-01T17:47:13.138Z,99542.09
2022-12-01T17:49:41.233Z,99539.97
2022-12-01T17:52:09.300Z,99541.56
2022-12-01T17:54:38.805Z,99542.34
2022-12-01T17:57:08.163Z,99544.78
2022-12-01T17:59:36.771Z,99547.72
2022-12-01T18:02:05.664Z,99547.47
2022-12-01T18:04:34.124Z,99550.44
2022-12-01T18:07:02.237Z,99555.28
2022-12-01T18:09:30.285Z,99546.44
2022-12-01T18:11:59.723Z,99551.25
2022-12-01T18:14:28.261Z,99546.97
2022-12-01T18:16:56.277Z,99543.50
2022-12-01T18:19:24.349Z,99544.84
2022-12-01T18:21:52.428Z,99552.91
2022-12-01T18:24:20.467Z,99550.50
2022-12-01T18:26:48.459Z,99543.81
2022-12-01T18:29:25.928Z,99548.38
2022-12-01T18:31:55.135Z,99553.44
2022-12-01T18:34:23.291Z,99549.72
2022-12-01T18:36:51.458Z,99550.75
2022-12-01T18:39:19.547Z,99551.56
2022-12-01T18:41:47.689Z,99552.59
2022-12-01T18:44:17.111Z,99540.28
2022-12-01T18:46:45.393Z,99545.88
2022-12-01T18:49:14.139Z,99552.34
2022-12-01T18:51:42.619Z,99545.34
2022-12-01T18:54:16.330Z,99544.00
2022-12-01T18:56:44.467Z,99539.19
2022-12-01T18:59:13.705Z,99544.59
2022-12-01T19:01:45.858Z,99542.44
2022-12-01T19:04:16.580Z,99548.59
2022-12-01T19:06:45.927Z,99549.66
2022-12-01T19:09:15.770Z,99551.00
2022-12-01T19:11:44.376Z,99550.72
2022-12-01T19:14:15.962Z,99551.50
2022-12-01T19:16:45.860Z,99546.97
2022-12-01T19:19:13.942Z,99552.34
2022-12-01T19:21:42.915Z,99550.72
2022-12-01T19:24:10.974Z,99555.00
2022-12-01T19:26:39.052Z,99553.38
2022-12-01T19:29:07.129Z,99554.19
2022-12-01T19:31:35.220Z,99552.34
2022-12-01T19:34:04.854Z,99555.00
2022-12-01T19:36:32.949Z,99554.19
2022-12-01T19:39:04.046Z,99546.97
2022-12-01T19:41:35.307Z,99545.34
2022-12-01T19:44:03.371Z,99546.13
2022-12-01T19:46:31.426Z,99541.59
2022-12-01T19:49:01.501Z,99546.97
2022-12-01T19:51:34.969Z,99548.56
2022-12-01T19:54:03.800Z,99540.53
2022-12-01T19:56:32.352Z,99542.66
2022-12-01T19:59:00.996Z,99542.66
2022-12-01T20:01:29.318Z,99542.66
2022-12-01T20:03:57.357Z,99548.81
2022-12-01T20:06:28.171Z,99545.34
2022-12-01T20:08:59.744Z,99533.81
2022-12-01T20:11:29.714Z,99530.34
2022-12-01T20:13:57.718Z,99533.03
2022-12-01T20:16:28.126Z,99531.94
2022-12-01T20:18:56.408Z,99536.50
2022-12-01T20:21:26.777Z,99542.66
2022-12-01T20:23:59.202Z,99535.72
2022-12-01T20:26:30.727Z,99542.66
2022-12-01T20:29:01.660Z,99537.31
2022-12-01T20:31:30.919Z,99544.84
2022-12-01T20:34:00.283Z,99541.88
2022-12-01T20:36:28.919Z,99551.56
2022-12-01T20:38:58.426Z,99551.25
2022-12-01T20:41:26.555Z,99558.75
2022-12-01T20:43:54.665Z,99553.94
2022-12-01T20:46:22.781Z,99553.94
2022-12-01T20:48:50.792Z,99559.28
2022-12-01T20:51:19.296Z,99567.88
2022-12-01T20:54:12.406Z,99561.19
2022-12-01T20:56:36.847Z,99562.81
2022-12-01T20:59:07.183Z,99562.53
2022-12-01T21:01:35.579Z,99565.75
2022-12-01T21:04:03.692Z,99563.63
2022-12-01T21:06:31.724Z,99562.81
2022-12-01T21:08:59.781Z,99571.66
2022-12-01T21:11:44.092Z,99557.16
2022-12-01T21:14:18.960Z,99556.66
2022-12-01T21:16:49.355Z,99553.97
2022-12-01T21:19:25.268Z,99551.84
2022-12-01T21:21:53.388Z,99560.94
2022-12-01T21:24:28.494Z,99551.56
2022-12-01T21:27:03.053Z,99556.63
2022-12-01T21:29:39.729Z,99566.03
2022-12-01T21:32:14.383Z,99566.31
2022-12-01T21:34:42.668Z,99570.59
2022-12-01T21:37:20.456Z,99568.44
2022-12-01T21:39:51.118Z,99565.75
2022-12-01T21:42:20.916Z,99574.84
2022-12-01T21:44:50.879Z,99579.44
2022-12-01T21:47:21.887Z,99572.47
2022-12-01T21:49:53.033Z,99572.75
2022-12-01T21:52:25.144Z,99570.56
2022-12-01T21:54:53.304Z,99574.59
2022-12-01T21:57:42.973Z,99573.78
2022-12-01T22:00:32.325Z,99573.53
2022-12-01T22:03:16.810Z,99572.72
2022-12-01T22:06:01.442Z,99568.97
2022-12-01T22:08:37.072Z,99579.69
2022-12-01T22:11:11.902Z,99568.44
2022-12-01T22:13:45.116Z,99572.72
2022-12-01T22:16:20.062Z,99581.84
2022-12-01T22:18:50.503Z,99574.34
2022-12-01T22:21:41.713Z,99580.75
2022-12-01T22:24:26.761Z,99575.94
2022-12-01T22:27:04.885Z,99584.81
2022-12-01T22:29:35.253Z,99575.44
2022-12-01T22:32:33.357Z,99576.50
2022-12-01T22:35:22.927Z,99577.56
2022-12-01T22:37:52.531Z,99566.84
2022-12-01T22:40:41.413Z,99569.53
2022-12-01T22:43:31.069Z,99560.69
2022-12-01T22:46:08.387Z,99569.53
2022-12-01T22:48:41.818Z,99567.38
2022-12-01T22:51:37.884Z,99560.16
2022-12-01T22:54:34.579Z,99558.25
2022-12-01T22:57:07.250Z,99554.53
2022-12-01T22:59:37.437Z,99554.53
2022-12-01T23:02:20.986Z,99559.88
2022-12-01T23:04:54.253Z,99561.47
2022-12-01T23:07:34.039Z,99556.66
2022-12-01T23:10:14.285Z,99552.38
2022-12-01T23:12:43.050Z,99544.59
2022-12-01T23:15:33.211Z,99551.31
2022-12-01T23:18:10.823Z,99543.28
2022-12-01T23:20:41.544Z,99552.91
2022-12-01T23:23:14.984Z,99545.94
2022-12-01T23:25:44.299Z,99542.19
2022-12-01T23:28:13.624Z,99540.59
2022-12-01T23:30:43.946Z,99543.28
2022-12-01T23:33:17.593Z,99540.84
2022-12-01T23:35:57.136Z,99539.22
2022-12-01T23:38:30.502Z,99532.81
2022-12-01T23:41:02.713Z,99529.59
2022-12-01T23:43:34.423Z,99530.94
2022-12-01T23:46:06.218Z,99543.53
2022-12-01T23:48:37.189Z,99539.50
2022-12-01T23:51:15.659Z,99540.59
2022-12-01T23:53:44.332Z,99540.31
2022-12-01T23:56:17.227Z,99538.72
2022-12-01T23:58:45.649Z,99540.59
